CheckWX is a tool to help pilots better visualize weather data.  It is not intended as a substitute for an official pre-flight weather briefing.

01:30:07 UTC

PAAQ METAR
Palmer Buddy Woods Municipal Airport
Palmer, Alaska, USA
Current

37 mins ago

PAAQ 190053Z 04015G28KT 10SM FEW080 18/M04 A3000 RMK AO2 PK WND 01031/0034 SLP159 BLDU SE-SW RIVER BED T01831039
Observed
Aug-19 @ 00:53 UTC
Wind
  • 040° at 15 KTS
  • Gusting to 28 KTS
Visibility
10 SM
Flight Rules
VFR
Cloud Levels
  • Few at 8,000' AGL
Temperature
18°C / 64°F
Dewpoint
-4°C / 25°F
Humidity
22%
Altimeter
30" Hg
Pressure
1015.92 hPa
Previous

2 hours ago

PAAQ 182353Z 04014G29KT 010V080 10SM FEW080 18/M02 A3002 RMK AO2 PK WND 03030/2334 SLP167 BLDU E-SW RIVER BED T01831022 10189 20144 57009
Observed
Aug-18 @ 23:53 UTC
Wind
  • 040° at 14 KTS
  • Gusting to 29 KTS
Visibility
10 SM
Flight Rules
VFR
Cloud Levels
  • Few at 8,000' AGL
Temperature
18°C / 64°F
Dewpoint
-2°C / 28°F
Humidity
26%
Altimeter
30.02" Hg
Pressure
1016.62 hPa
Previous

3 hours ago

PAAQ 182253Z 04022G32KT 10SM FEW080 18/M03 A3004 RMK AO2 PK WND 03034/2202 SLP174 BLDU ALQD T01831028
Observed
Aug-18 @ 22:53 UTC
Wind
  • 040° at 22 KTS
  • Gusting to 32 KTS
Visibility
10 SM
Flight Rules
VFR
Cloud Levels
  • Few at 8,000' AGL
Temperature
18°C / 64°F
Dewpoint
-3°C / 27°F
Humidity
24%
Altimeter
30.04" Hg
Pressure
1017.32 hPa